Strona główna
METAR-TAF:

METAR-TAF

Lotnisko :

York Airport

York, Pensylwania, Stany Zjednoczone

Szerokość geograficzna: 39-55-10N, Długość geograficzna: 076-52-37W, wysokość: 146 m

Aktualna obserwacja pogody

Raport powstał 32 minut temu, godzina 08:53 UTC
Cisza
Temperatura 13°C
Wilgotność 82%
Ciśnienie 1013 hPa
Widzialność: 16.1 km
bezchmurnie

METAR: KTHV 070853Z AUTO 00000KT 10SM CLR 13/10 A2992 RMK AO2 SLP131 T01330100 53010

czas: 05:25 (09:25 UTC)


TAF: brakujący

Obserwacja i prognoza pogody dla ponad 4000 lotnisk (raport METAR i TAF).

Dostępne stacje oznaczono żółtymi i czerwonymi punktami na mapie.

Najedź kursorem aby zobaczyć nazwę stacji.

Kliknij aby zobaczyć obserwacje i prognozy pogody.

Aby zmienić mapę: kliknij na zielony przycisk z czarnym krzyżykiem, aby powiększyć; na zielony przycisk z myślnikiem, aby pomniejszyć; na zielone strzałki, aby przejść do map sąsiednich.


METAR-TAF: